sensor_id;sensor_type;location;lat;lon;timestamp;temperature;humidity
20732;DHT22;10527;52.124;5.196;2023-05-07T00:00:00;17.00;99.90
20732;DHT22;10527;52.124;5.196;2023-05-07T00:02:27;16.90;99.90
20732;DHT22;10527;52.124;5.196;2023-05-07T00:04:55;16.90;99.90
20732;DHT22;10527;52.124;5.196;2023-05-07T00:07:23;16.90;99.90
20732;DHT22;10527;52.124;5.196;2023-05-07T00:09:51;16.80;99.90
20732;DHT22;10527;52.124;5.196;2023-05-07T00:12:18;16.90;99.90
20732;DHT22;10527;52.124;5.196;2023-05-07T00:14:44;16.90;99.90
20732;DHT22;10527;52.124;5.196;2023-05-07T00:17:11;17.00;99.90
20732;DHT22;10527;52.124;5.196;2023-05-07T00:19:38;16.90;99.90
20732;DHT22;10527;52.124;5.196;2023-05-07T00:22:07;16.90;99.90
20732;DHT22;10527;52.124;5.196;2023-05-07T00:24:34;16.90;99.90
20732;DHT22;10527;52.124;5.196;2023-05-07T00:27:01;16.90;99.90
20732;DHT22;10527;52.124;5.196;2023-05-07T00:29:27;16.90;99.90
20732;DHT22;10527;52.124;5.196;2023-05-07T00:31:54;16.90;99.90
20732;DHT22;10527;52.124;5.196;2023-05-07T00:34:21;16.90;99.90
20732;DHT22;10527;52.124;5.196;2023-05-07T00:36:48;16.80;99.90
20732;DHT22;10527;52.124;5.196;2023-05-07T00:39:15;16.70;99.90
20732;DHT22;10527;52.124;5.196;2023-05-07T00:41:42;16.80;99.90
20732;DHT22;10527;52.124;5.196;2023-05-07T00:44:09;16.80;99.90
20732;DHT22;10527;52.124;5.196;2023-05-07T00:46:35;16.70;99.90
20732;DHT22;10527;52.124;5.196;2023-05-07T00:49:03;16.80;99.90
20732;DHT22;10527;52.124;5.196;2023-05-07T00:51:32;16.80;99.90
20732;DHT22;10527;52.124;5.196;2023-05-07T00:54:02;16.80;99.90
20732;DHT22;10527;52.124;5.196;2023-05-07T00:56:30;16.80;99.90
20732;DHT22;10527;52.124;5.196;2023-05-07T00:58:58;16.80;99.90
20732;DHT22;10527;52.124;5.196;2023-05-07T01:01:25;16.80;99.90
20732;DHT22;10527;52.124;5.196;2023-05-07T01:03:53;16.80;99.90
20732;DHT22;10527;52.124;5.196;2023-05-07T01:06:21;16.80;99.90
20732;DHT22;10527;52.124;5.196;2023-05-07T01:08:50;16.80;99.90
20732;DHT22;10527;52.124;5.196;2023-05-07T01:11:19;16.80;99.90
20732;DHT22;10527;52.124;5.196;2023-05-07T01:13:47;16.80;99.90
20732;DHT22;10527;52.124;5.196;2023-05-07T01:16:16;16.80;99.90
20732;DHT22;10527;52.124;5.196;2023-05-07T01:18:44;16.70;99.90
20732;DHT22;10527;52.124;5.196;2023-05-07T01:21:16;16.80;99.90
20732;DHT22;10527;52.124;5.196;2023-05-07T01:23:44;16.70;99.90
20732;DHT22;10527;52.124;5.196;2023-05-07T01:26:12;16.70;99.90
20732;DHT22;10527;52.124;5.196;2023-05-07T01:28:39;16.70;99.90
20732;DHT22;10527;52.124;5.196;2023-05-07T01:31:11;16.70;99.90
20732;DHT22;10527;52.124;5.196;2023-05-07T01:33:41;16.80;99.90
20732;DHT22;10527;52.124;5.196;2023-05-07T01:36:12;16.80;99.90
20732;DHT22;10527;52.124;5.196;2023-05-07T01:38:41;16.80;99.90
20732;DHT22;10527;52.124;5.196;2023-05-07T01:41:09;16.80;99.90
20732;DHT22;10527;52.124;5.196;2023-05-07T01:43:36;16.70;99.90
20732;DHT22;10527;52.124;5.196;2023-05-07T01:46:03;16.70;99.90
20732;DHT22;10527;52.124;5.196;2023-05-07T01:48:32;16.60;99.90
20732;DHT22;10527;52.124;5.196;2023-05-07T01:51:00;16.70;99.90
20732;DHT22;10527;52.124;5.196;2023-05-07T01:53:28;16.70;99.90
20732;DHT22;10527;52.124;5.196;2023-05-07T01:55:55;16.70;99.90
20732;DHT22;10527;52.124;5.196;2023-05-07T01:58:21;16.60;99.90
20732;DHT22;10527;52.124;5.196;2023-05-07T02:00:48;16.60;99.90
20732;DHT22;10527;52.124;5.196;2023-05-07T02:03:15;16.60;99.90
20732;DHT22;10527;52.124;5.196;2023-05-07T02:05:42;16.50;99.90
20732;DHT22;10527;52.124;5.196;2023-05-07T02:08:09;16.50;99.90
20732;DHT22;10527;52.124;5.196;2023-05-07T02:10:36;16.60;99.90
20732;DHT22;10527;52.124;5.196;2023-05-07T02:13:03;16.60;99.90
20732;DHT22;10527;52.124;5.196;2023-05-07T02:15:29;16.70;99.90
20732;DHT22;10527;52.124;5.196;2023-05-07T02:18:04;16.70;99.90
20732;DHT22;10527;52.124;5.196;2023-05-07T02:20:33;16.60;99.90
20732;DHT22;10527;52.124;5.196;2023-05-07T02:23:00;16.50;99.90
20732;DHT22;10527;52.124;5.196;2023-05-07T02:25:27;16.40;99.90
20732;DHT22;10527;52.124;5.196;2023-05-07T02:27:54;16.50;99.90
20732;DHT22;10527;52.124;5.196;2023-05-07T02:30:21;16.50;99.90
20732;DHT22;10527;52.124;5.196;2023-05-07T02:32:48;16.50;99.90
20732;DHT22;10527;52.124;5.196;2023-05-07T02:35:15;16.40;99.90
20732;DHT22;10527;52.124;5.196;2023-05-07T02:37:42;16.50;99.90
20732;DHT22;10527;52.124;5.196;2023-05-07T02:40:09;16.50;99.90
20732;DHT22;10527;52.124;5.196;2023-05-07T02:42:38;16.50;99.90
20732;DHT22;10527;52.124;5.196;2023-05-07T02:45:05;16.50;99.90
20732;DHT22;10527;52.124;5.196;2023-05-07T02:47:32;16.50;99.90
20732;DHT22;10527;52.124;5.196;2023-05-07T02:49:59;16.50;99.90
20732;DHT22;10527;52.124;5.196;2023-05-07T02:52:26;16.50;99.90
20732;DHT22;10527;52.124;5.196;2023-05-07T02:54:52;16.40;99.90
20732;DHT22;10527;52.124;5.196;2023-05-07T02:57:19;16.60;99.90
20732;DHT22;10527;52.124;5.196;2023-05-07T02:59:46;16.50;99.90
20732;DHT22;10527;52.124;5.196;2023-05-07T03:02:13;16.50;99.90
20732;DHT22;10527;52.124;5.196;2023-05-07T03:04:42;16.50;99.90
20732;DHT22;10527;52.124;5.196;2023-05-07T03:07:09;16.40;99.90
20732;DHT22;10527;52.124;5.196;2023-05-07T03:09:35;16.40;99.90
20732;DHT22;10527;52.124;5.196;2023-05-07T03:12:02;16.30;99.90
20732;DHT22;10527;52.124;5.196;2023-05-07T03:14:29;16.30;99.90
20732;DHT22;10527;52.124;5.196;2023-05-07T03:16:59;16.20;99.90
20732;DHT22;10527;52.124;5.196;2023-05-07T03:19:25;16.30;99.90
20732;DHT22;10527;52.124;5.196;2023-05-07T03:21:52;16.30;99.90
20732;DHT22;10527;52.124;5.196;2023-05-07T03:24:19;16.20;99.90
20732;DHT22;10527;52.124;5.196;2023-05-07T03:26:46;16.30;99.90
20732;DHT22;10527;52.124;5.196;2023-05-07T03:29:13;16.30;99.90
20732;DHT22;10527;52.124;5.196;2023-05-07T03:31:40;16.20;99.90
20732;DHT22;10527;52.124;5.196;2023-05-07T03:34:09;16.20;99.90
20732;DHT22;10527;52.124;5.196;2023-05-07T03:36:36;16.20;99.90
20732;DHT22;10527;52.124;5.196;2023-05-07T03:39:02;16.20;99.90
20732;DHT22;10527;52.124;5.196;2023-05-07T03:41:29;16.20;99.90
20732;DHT22;10527;52.124;5.196;2023-05-07T03:43:56;16.20;99.90
20732;DHT22;10527;52.124;5.196;2023-05-07T03:46:23;16.20;99.90
20732;DHT22;10527;52.124;5.196;2023-05-07T03:48:52;16.10;99.90
20732;DHT22;10527;52.124;5.196;2023-05-07T03:51:19;16.10;99.90
20732;DHT22;10527;52.124;5.196;2023-05-07T03:53:46;16.00;99.90
20732;DHT22;10527;52.124;5.196;2023-05-07T03:56:12;16.00;99.90
20732;DHT22;10527;52.124;5.196;2023-05-07T03:58:39;16.00;99.90
20732;DHT22;10527;52.124;5.196;2023-05-07T04:01:06;16.00;99.90
20732;DHT22;10527;52.124;5.196;2023-05-07T04:03:33;16.10;99.90
20732;DHT22;10527;52.124;5.196;2023-05-07T04:06:00;16.00;99.90
20732;DHT22;10527;52.124;5.196;2023-05-07T04:08:27;16.00;99.90
20732;DHT22;10527;52.124;5.196;2023-05-07T04:10:55;16.00;99.90
20732;DHT22;10527;52.124;5.196;2023-05-07T04:13:27;16.00;99.90
20732;DHT22;10527;52.124;5.196;2023-05-07T04:15:55;16.00;99.90
20732;DHT22;10527;52.124;5.196;2023-05-07T04:18:21;16.00;99.90
20732;DHT22;10527;52.124;5.196;2023-05-07T04:20:48;16.00;99.90
20732;DHT22;10527;52.124;5.196;2023-05-07T04:23:19;16.10;99.90
20732;DHT22;10527;52.124;5.196;2023-05-07T04:25:46;16.10;99.90
20732;DHT22;10527;52.124;5.196;2023-05-07T04:28:13;16.00;99.90
20732;DHT22;10527;52.124;5.196;2023-05-07T04:30:40;16.00;99.90
20732;DHT22;10527;52.124;5.196;2023-05-07T04:33:10;16.00;99.90
20732;DHT22;10527;52.124;5.196;2023-05-07T04:35:38;16.10;99.90
20732;DHT22;10527;52.124;5.196;2023-05-07T04:38:04;16.10;99.90
20732;DHT22;10527;52.124;5.196;2023-05-07T04:40:33;16.00;99.90
20732;DHT22;10527;52.124;5.196;2023-05-07T04:43:02;16.00;99.90
20732;DHT22;10527;52.124;5.196;2023-05-07T04:45:29;16.10;99.90
20732;DHT22;10527;52.124;5.196;2023-05-07T04:47:55;16.10;99.90
20732;DHT22;10527;52.124;5.196;2023-05-07T04:50:22;16.00;99.90
20732;DHT22;10527;52.124;5.196;2023-05-07T04:52:50;16.10;99.90
20732;DHT22;10527;52.124;5.196;2023-05-07T04:55:17;16.10;99.90
20732;DHT22;10527;52.124;5.196;2023-05-07T04:57:44;16.10;99.90
20732;DHT22;10527;52.124;5.196;2023-05-07T05:00:12;16.10;99.90
20732;DHT22;10527;52.124;5.196;2023-05-07T05:02:42;16.10;99.90
20732;DHT22;10527;52.124;5.196;2023-05-07T05:05:09;16.20;99.90
20732;DHT22;10527;52.124;5.196;2023-05-07T05:07:36;16.10;99.90
20732;DHT22;10527;52.124;5.196;2023-05-07T05:10:06;16.10;99.90
20732;DHT22;10527;52.124;5.196;2023-05-07T05:12:33;16.10;99.90
20732;DHT22;10527;52.124;5.196;2023-05-07T05:15:00;16.10;99.90
20732;DHT22;10527;52.124;5.196;2023-05-07T05:17:27;16.10;99.90
20732;DHT22;10527;52.124;5.196;2023-05-07T05:19:54;16.10;99.90
20732;DHT22;10527;52.124;5.196;2023-05-07T05:22:21;16.20;99.90
20732;DHT22;10527;52.124;5.196;2023-05-07T05:24:48;16.20;99.90
20732;DHT22;10527;52.124;5.196;2023-05-07T05:27:14;16.10;99.90
20732;DHT22;10527;52.124;5.196;2023-05-07T05:29:41;16.10;99.90
20732;DHT22;10527;52.124;5.196;2023-05-07T05:32:08;16.10;99.90
20732;DHT22;10527;52.124;5.196;2023-05-07T05:34:35;16.10;99.90
20732;DHT22;10527;52.124;5.196;2023-05-07T05:37:01;16.10;99.90
20732;DHT22;10527;52.124;5.196;2023-05-07T05:39:28;16.10;99.90
20732;DHT22;10527;52.124;5.196;2023-05-07T05:41:55;16.20;99.90
20732;DHT22;10527;52.124;5.196;2023-05-07T05:44:22;16.20;99.90
20732;DHT22;10527;52.124;5.196;2023-05-07T05:46:49;16.20;99.90
20732;DHT22;10527;52.124;5.196;2023-05-07T05:49:16;16.20;99.90
20732;DHT22;10527;52.124;5.196;2023-05-07T05:51:43;16.20;99.90
20732;DHT22;10527;52.124;5.196;2023-05-07T05:54:10;16.20;99.90
20732;DHT22;10527;52.124;5.196;2023-05-07T05:56:37;16.10;99.90
20732;DHT22;10527;52.124;5.196;2023-05-07T05:59:04;16.20;99.90
20732;DHT22;10527;52.124;5.196;2023-05-07T06:01:31;16.20;99.90
20732;DHT22;10527;52.124;5.196;2023-05-07T06:04:00;16.20;99.90
20732;DHT22;10527;52.124;5.196;2023-05-07T06:06:27;16.10;99.90
20732;DHT22;10527;52.124;5.196;2023-05-07T06:08:54;16.20;99.90
20732;DHT22;10527;52.124;5.196;2023-05-07T06:11:21;16.20;99.90
20732;DHT22;10527;52.124;5.196;2023-05-07T06:13:47;16.10;99.90
20732;DHT22;10527;52.124;5.196;2023-05-07T06:16:14;16.10;99.90
20732;DHT22;10527;52.124;5.196;2023-05-07T06:18:41;16.00;99.90
20732;DHT22;10527;52.124;5.196;2023-05-07T06:21:09;16.10;99.90
20732;DHT22;10527;52.124;5.196;2023-05-07T06:23:36;16.10;99.90
20732;DHT22;10527;52.124;5.196;2023-05-07T06:26:07;16.20;99.90
20732;DHT22;10527;52.124;5.196;2023-05-07T06:28:34;16.20;99.90
20732;DHT22;10527;52.124;5.196;2023-05-07T06:31:14;16.20;99.90
20732;DHT22;10527;52.124;5.196;2023-05-07T06:33:44;16.20;99.90
20732;DHT22;10527;52.124;5.196;2023-05-07T06:36:12;16.30;99.90
20732;DHT22;10527;52.124;5.196;2023-05-07T06:38:39;16.40;99.90
20732;DHT22;10527;52.124;5.196;2023-05-07T06:41:06;16.50;99.90
20732;DHT22;10527;52.124;5.196;2023-05-07T06:43:35;16.50;99.90
20732;DHT22;10527;52.124;5.196;2023-05-07T06:46:02;16.50;99.90
20732;DHT22;10527;52.124;5.196;2023-05-07T06:48:29;16.50;99.90
20732;DHT22;10527;52.124;5.196;2023-05-07T06:50:56;16.60;99.90
20732;DHT22;10527;52.124;5.196;2023-05-07T06:53:24;16.60;99.90
20732;DHT22;10527;52.124;5.196;2023-05-07T06:55:52;16.60;99.90
20732;DHT22;10527;52.124;5.196;2023-05-07T06:58:20;16.60;99.90
20732;DHT22;10527;52.124;5.196;2023-05-07T07:00:46;16.80;99.90
20732;DHT22;10527;52.124;5.196;2023-05-07T07:03:13;16.80;99.90
20732;DHT22;10527;52.124;5.196;2023-05-07T07:05:41;16.90;99.90
20732;DHT22;10527;52.124;5.196;2023-05-07T07:08:09;16.90;99.90
20732;DHT22;10527;52.124;5.196;2023-05-07T07:10:36;16.90;99.90
20732;DHT22;10527;52.124;5.196;2023-05-07T07:13:03;16.90;99.90
20732;DHT22;10527;52.124;5.196;2023-05-07T07:15:30;17.00;99.90
20732;DHT22;10527;52.124;5.196;2023-05-07T07:17:57;17.10;99.90
20732;DHT22;10527;52.124;5.196;2023-05-07T07:20:24;17.10;99.90
20732;DHT22;10527;52.124;5.196;2023-05-07T07:22:52;17.20;99.90
20732;DHT22;10527;52.124;5.196;2023-05-07T07:25:20;17.20;99.90
20732;DHT22;10527;52.124;5.196;2023-05-07T07:27:47;17.30;99.90
20732;DHT22;10527;52.124;5.196;2023-05-07T07:30:14;17.40;99.90
20732;DHT22;10527;52.124;5.196;2023-05-07T07:32:41;17.40;99.90
20732;DHT22;10527;52.124;5.196;2023-05-07T07:35:09;17.60;99.90
20732;DHT22;10527;52.124;5.196;2023-05-07T07:37:37;17.50;99.90
20732;DHT22;10527;52.124;5.196;2023-05-07T07:40:04;17.50;99.90
20732;DHT22;10527;52.124;5.196;2023-05-07T07:42:31;17.60;99.90
20732;DHT22;10527;52.124;5.196;2023-05-07T07:44:58;17.60;99.90
20732;DHT22;10527;52.124;5.196;2023-05-07T07:47:27;17.70;99.90
20732;DHT22;10527;52.124;5.196;2023-05-07T07:49:54;17.80;99.90
20732;DHT22;10527;52.124;5.196;2023-05-07T07:52:21;17.70;99.90
20732;DHT22;10527;52.124;5.196;2023-05-07T07:54:48;17.60;99.90
20732;DHT22;10527;52.124;5.196;2023-05-07T07:57:15;17.70;99.90
20732;DHT22;10527;52.124;5.196;2023-05-07T07:59:43;17.80;99.90
20732;DHT22;10527;52.124;5.196;2023-05-07T08:02:10;17.80;99.90
20732;DHT22;10527;52.124;5.196;2023-05-07T08:04:37;17.80;99.90
20732;DHT22;10527;52.124;5.196;2023-05-07T08:07:05;17.90;99.90
20732;DHT22;10527;52.124;5.196;2023-05-07T08:09:32;17.90;99.90
20732;DHT22;10527;52.124;5.196;2023-05-07T08:11:58;17.90;99.90
20732;DHT22;10527;52.124;5.196;2023-05-07T08:14:25;17.90;99.90
20732;DHT22;10527;52.124;5.196;2023-05-07T08:16:55;17.80;99.90
20732;DHT22;10527;52.124;5.196;2023-05-07T08:19:22;17.90;99.90
20732;DHT22;10527;52.124;5.196;2023-05-07T08:21:49;17.90;99.90
20732;DHT22;10527;52.124;5.196;2023-05-07T08:24:17;18.00;99.90
20732;DHT22;10527;52.124;5.196;2023-05-07T08:26:44;18.00;99.90
20732;DHT22;10527;52.124;5.196;2023-05-07T08:29:13;18.00;99.90
20732;DHT22;10527;52.124;5.196;2023-05-07T08:31:40;18.10;99.90
20732;DHT22;10527;52.124;5.196;2023-05-07T08:34:07;18.00;99.90
20732;DHT22;10527;52.124;5.196;2023-05-07T08:36:35;18.00;99.90
20732;DHT22;10527;52.124;5.196;2023-05-07T08:39:02;18.00;99.90
20732;DHT22;10527;52.124;5.196;2023-05-07T08:41:29;18.10;99.90
20732;DHT22;10527;52.124;5.196;2023-05-07T08:43:58;18.30;99.90
20732;DHT22;10527;52.124;5.196;2023-05-07T08:46:31;18.30;99.90
20732;DHT22;10527;52.124;5.196;2023-05-07T08:48:59;18.30;99.90
20732;DHT22;10527;52.124;5.196;2023-05-07T08:51:26;18.30;99.90
20732;DHT22;10527;52.124;5.196;2023-05-07T08:53:53;18.40;99.90
20732;DHT22;10527;52.124;5.196;2023-05-07T08:56:20;18.40;99.90
20732;DHT22;10527;52.124;5.196;2023-05-07T08:58:48;18.50;99.90
20732;DHT22;10527;52.124;5.196;2023-05-07T09:01:16;18.50;99.90
20732;DHT22;10527;52.124;5.196;2023-05-07T09:03:47;18.50;99.90
20732;DHT22;10527;52.124;5.196;2023-05-07T09:06:16;18.60;99.90
20732;DHT22;10527;52.124;5.196;2023-05-07T09:08:54;18.60;99.90
20732;DHT22;10527;52.124;5.196;2023-05-07T09:11:22;18.70;99.90
20732;DHT22;10527;52.124;5.196;2023-05-07T09:13:54;18.80;99.90
20732;DHT22;10527;52.124;5.196;2023-05-07T09:16:26;18.90;99.90
20732;DHT22;10527;52.124;5.196;2023-05-07T09:18:55;18.90;99.90
20732;DHT22;10527;52.124;5.196;2023-05-07T09:21:23;19.00;99.90
20732;DHT22;10527;52.124;5.196;2023-05-07T09:23:52;19.00;99.90
20732;DHT22;10527;52.124;5.196;2023-05-07T09:26:24;19.10;99.90
20732;DHT22;10527;52.124;5.196;2023-05-07T09:28:51;19.00;99.90
20732;DHT22;10527;52.124;5.196;2023-05-07T09:31:18;19.00;99.90
20732;DHT22;10527;52.124;5.196;2023-05-07T09:33:47;19.00;99.90
20732;DHT22;10527;52.124;5.196;2023-05-07T09:36:14;19.00;99.90
20732;DHT22;10527;52.124;5.196;2023-05-07T09:38:41;19.10;99.90
20732;DHT22;10527;52.124;5.196;2023-05-07T09:41:10;19.10;99.90
20732;DHT22;10527;52.124;5.196;2023-05-07T09:43:39;19.10;99.90
20732;DHT22;10527;52.124;5.196;2023-05-07T09:46:14;19.10;99.90
20732;DHT22;10527;52.124;5.196;2023-05-07T09:49:06;19.30;99.90
20732;DHT22;10527;52.124;5.196;2023-05-07T09:51:52;19.40;99.90
20732;DHT22;10527;52.124;5.196;2023-05-07T09:54:23;19.50;99.90
20732;DHT22;10527;52.124;5.196;2023-05-07T09:57:10;19.60;99.90
20732;DHT22;10527;52.124;5.196;2023-05-07T09:59:39;19.70;99.90
20732;DHT22;10527;52.124;5.196;2023-05-07T10:02:11;19.70;99.90
20732;DHT22;10527;52.124;5.196;2023-05-07T10:04:44;19.80;99.90
20732;DHT22;10527;52.124;5.196;2023-05-07T10:07:13;19.90;99.90
20732;DHT22;10527;52.124;5.196;2023-05-07T10:09:40;20.00;99.90
20732;DHT22;10527;52.124;5.196;2023-05-07T10:12:09;20.00;99.90
20732;DHT22;10527;52.124;5.196;2023-05-07T10:14:37;20.10;99.90
20732;DHT22;10527;52.124;5.196;2023-05-07T10:17:04;20.10;99.90
20732;DHT22;10527;52.124;5.196;2023-05-07T10:19:32;20.20;99.90
20732;DHT22;10527;52.124;5.196;2023-05-07T10:22:05;20.20;99.90
20732;DHT22;10527;52.124;5.196;2023-05-07T10:24:37;20.30;99.90
20732;DHT22;10527;52.124;5.196;2023-05-07T10:27:09;20.40;99.90
20732;DHT22;10527;52.124;5.196;2023-05-07T10:33:11;20.70;99.90
20732;DHT22;10527;52.124;5.196;2023-05-07T10:35:48;20.80;99.90
20732;DHT22;10527;52.124;5.196;2023-05-07T10:38:15;20.90;99.90
20732;DHT22;10527;52.124;5.196;2023-05-07T10:40:43;20.90;99.90
20732;DHT22;10527;52.124;5.196;2023-05-07T10:43:13;21.10;99.90
20732;DHT22;10527;52.124;5.196;2023-05-07T10:49:10;21.20;99.90
20732;DHT22;10527;52.124;5.196;2023-05-07T10:51:39;21.40;99.90
20732;DHT22;10527;52.124;5.196;2023-05-07T10:56:43;21.50;99.90
20732;DHT22;10527;52.124;5.196;2023-05-07T10:59:37;21.60;99.90
20732;DHT22;10527;52.124;5.196;2023-05-07T11:02:09;21.70;99.90
20732;DHT22;10527;52.124;5.196;2023-05-07T11:04:37;21.70;99.90
20732;DHT22;10527;52.124;5.196;2023-05-07T11:10:05;21.80;99.90
20732;DHT22;10527;52.124;5.196;2023-05-07T11:15:04;21.80;99.90
20732;DHT22;10527;52.124;5.196;2023-05-07T11:17:33;21.90;99.90
20732;DHT22;10527;52.124;5.196;2023-05-07T11:20:03;22.00;99.90
20732;DHT22;10527;52.124;5.196;2023-05-07T11:25:04;22.20;99.90
20732;DHT22;10527;52.124;5.196;2023-05-07T11:27:33;22.30;99.90
20732;DHT22;10527;52.124;5.196;2023-05-07T11:30:00;22.20;99.90
20732;DHT22;10527;52.124;5.196;2023-05-07T11:32:29;22.40;99.90
20732;DHT22;10527;52.124;5.196;2023-05-07T11:34:58;22.40;99.90
20732;DHT22;10527;52.124;5.196;2023-05-07T11:37:28;22.40;99.90
20732;DHT22;10527;52.124;5.196;2023-05-07T11:40:07;22.60;99.90
20732;DHT22;10527;52.124;5.196;2023-05-07T11:42:39;22.70;99.90
20732;DHT22;10527;52.124;5.196;2023-05-07T11:45:08;22.90;99.90
20732;DHT22;10527;52.124;5.196;2023-05-07T11:47:36;23.00;99.90
20732;DHT22;10527;52.124;5.196;2023-05-07T11:50:06;23.10;99.90
20732;DHT22;10527;52.124;5.196;2023-05-07T11:52:37;23.10;99.90
20732;DHT22;10527;52.124;5.196;2023-05-07T11:55:08;23.30;99.90
20732;DHT22;10527;52.124;5.196;2023-05-07T11:57:35;23.20;99.90
20732;DHT22;10527;52.124;5.196;2023-05-07T12:00:03;23.20;99.90
20732;DHT22;10527;52.124;5.196;2023-05-07T12:02:31;23.20;99.90
20732;DHT22;10527;52.124;5.196;2023-05-07T12:05:00;23.20;99.90
20732;DHT22;10527;52.124;5.196;2023-05-07T12:07:27;23.20;99.90
20732;DHT22;10527;52.124;5.196;2023-05-07T12:09:54;23.10;99.90
20732;DHT22;10527;52.124;5.196;2023-05-07T12:12:21;23.10;99.90
20732;DHT22;10527;52.124;5.196;2023-05-07T12:14:48;23.00;99.90
20732;DHT22;10527;52.124;5.196;2023-05-07T12:17:16;23.10;99.90
20732;DHT22;10527;52.124;5.196;2023-05-07T12:19:44;22.90;99.90
20732;DHT22;10527;52.124;5.196;2023-05-07T12:22:12;22.90;99.90
20732;DHT22;10527;52.124;5.196;2023-05-07T12:25:06;23.00;99.90
20732;DHT22;10527;52.124;5.196;2023-05-07T12:27:37;23.20;99.90
20732;DHT22;10527;52.124;5.196;2023-05-07T12:30:10;23.30;99.90
20732;DHT22;10527;52.124;5.196;2023-05-07T12:32:37;23.50;99.90
20732;DHT22;10527;52.124;5.196;2023-05-07T12:35:06;23.40;99.90
20732;DHT22;10527;52.124;5.196;2023-05-07T12:37:35;23.40;99.90
20732;DHT22;10527;52.124;5.196;2023-05-07T12:40:08;23.30;99.90
20732;DHT22;10527;52.124;5.196;2023-05-07T12:42:37;23.20;99.90
20732;DHT22;10527;52.124;5.196;2023-05-07T12:45:15;23.20;99.90
20732;DHT22;10527;52.124;5.196;2023-05-07T12:47:46;23.20;99.90
20732;DHT22;10527;52.124;5.196;2023-05-07T12:50:15;23.00;99.90
20732;DHT22;10527;52.124;5.196;2023-05-07T12:52:43;23.00;99.90
20732;DHT22;10527;52.124;5.196;2023-05-07T12:55:14;23.10;99.90
20732;DHT22;10527;52.124;5.196;2023-05-07T12:57:49;23.10;99.90
20732;DHT22;10527;52.124;5.196;2023-05-07T13:03:02;23.10;99.90
20732;DHT22;10527;52.124;5.196;2023-05-07T13:05:29;23.20;99.90
20732;DHT22;10527;52.124;5.196;2023-05-07T13:07:56;23.20;99.90
20732;DHT22;10527;52.124;5.196;2023-05-07T13:10:24;23.10;99.90
20732;DHT22;10527;52.124;5.196;2023-05-07T13:12:51;23.10;99.90
20732;DHT22;10527;52.124;5.196;2023-05-07T13:15:19;23.10;99.90
20732;DHT22;10527;52.124;5.196;2023-05-07T13:17:46;23.10;99.90
20732;DHT22;10527;52.124;5.196;2023-05-07T13:20:13;23.20;99.90
20732;DHT22;10527;52.124;5.196;2023-05-07T13:22:40;23.20;99.90
20732;DHT22;10527;52.124;5.196;2023-05-07T13:25:08;23.20;99.90
20732;DHT22;10527;52.124;5.196;2023-05-07T13:27:35;23.30;99.90
20732;DHT22;10527;52.124;5.196;2023-05-07T13:30:04;23.30;99.90
20732;DHT22;10527;52.124;5.196;2023-05-07T13:32:34;23.30;99.90
20732;DHT22;10527;52.124;5.196;2023-05-07T13:35:01;23.30;99.90
20732;DHT22;10527;52.124;5.196;2023-05-07T13:37:28;23.30;99.90
20732;DHT22;10527;52.124;5.196;2023-05-07T13:39:55;23.40;99.90
20732;DHT22;10527;52.124;5.196;2023-05-07T13:42:22;23.50;99.90
20732;DHT22;10527;52.124;5.196;2023-05-07T13:44:48;23.60;99.90
20732;DHT22;10527;52.124;5.196;2023-05-07T13:47:16;23.60;99.90
20732;DHT22;10527;52.124;5.196;2023-05-07T13:49:43;23.50;99.90
20732;DHT22;10527;52.124;5.196;2023-05-07T13:52:09;23.50;99.90
20732;DHT22;10527;52.124;5.196;2023-05-07T13:54:37;23.70;99.90
20732;DHT22;10527;52.124;5.196;2023-05-07T13:57:04;23.70;99.90
20732;DHT22;10527;52.124;5.196;2023-05-07T13:59:31;23.80;99.90
20732;DHT22;10527;52.124;5.196;2023-05-07T14:01:58;23.60;99.90
20732;DHT22;10527;52.124;5.196;2023-05-07T14:04:25;23.60;99.90
20732;DHT22;10527;52.124;5.196;2023-05-07T14:06:52;23.50;99.90
20732;DHT22;10527;52.124;5.196;2023-05-07T14:09:18;23.40;99.90
20732;DHT22;10527;52.124;5.196;2023-05-07T14:11:45;23.50;99.90
20732;DHT22;10527;52.124;5.196;2023-05-07T14:14:14;23.20;99.90
20732;DHT22;10527;52.124;5.196;2023-05-07T14:16:40;23.20;99.90
20732;DHT22;10527;52.124;5.196;2023-05-07T14:19:07;23.10;99.90
20732;DHT22;10527;52.124;5.196;2023-05-07T14:21:34;23.10;99.90
20732;DHT22;10527;52.124;5.196;2023-05-07T14:24:01;23.20;99.90
20732;DHT22;10527;52.124;5.196;2023-05-07T14:26:28;23.10;99.90
20732;DHT22;10527;52.124;5.196;2023-05-07T14:28:55;23.10;99.90
20732;DHT22;10527;52.124;5.196;2023-05-07T14:31:25;23.00;99.90
20732;DHT22;10527;52.124;5.196;2023-05-07T14:33:52;22.90;99.90
20732;DHT22;10527;52.124;5.196;2023-05-07T14:36:19;23.00;99.90
20732;DHT22;10527;52.124;5.196;2023-05-07T14:38:48;22.80;99.90
20732;DHT22;10527;52.124;5.196;2023-05-07T14:41:15;22.40;99.90
20732;DHT22;10527;52.124;5.196;2023-05-07T14:43:42;22.20;99.90
20732;DHT22;10527;52.124;5.196;2023-05-07T14:46:10;22.00;99.90
20732;DHT22;10527;52.124;5.196;2023-05-07T14:48:37;21.60;99.90
20732;DHT22;10527;52.124;5.196;2023-05-07T14:51:05;21.50;99.90
20732;DHT22;10527;52.124;5.196;2023-05-07T14:53:32;21.50;99.90
20732;DHT22;10527;52.124;5.196;2023-05-07T14:55:59;20.90;99.90
20732;DHT22;10527;52.124;5.196;2023-05-07T14:58:26;20.10;99.90
20732;DHT22;10527;52.124;5.196;2023-05-07T15:00:53;19.50;99.90
20732;DHT22;10527;52.124;5.196;2023-05-07T15:03:20;19.20;99.90
20732;DHT22;10527;52.124;5.196;2023-05-07T15:05:48;18.80;99.90
20732;DHT22;10527;52.124;5.196;2023-05-07T15:08:18;18.70;99.90
20732;DHT22;10527;52.124;5.196;2023-05-07T15:10:45;18.70;99.90
20732;DHT22;10527;52.124;5.196;2023-05-07T15:13:12;18.70;99.90
20732;DHT22;10527;52.124;5.196;2023-05-07T15:15:42;18.50;99.90
20732;DHT22;10527;52.124;5.196;2023-05-07T15:18:12;18.40;99.90
20732;DHT22;10527;52.124;5.196;2023-05-07T15:20:41;18.40;99.90
20732;DHT22;10527;52.124;5.196;2023-05-07T15:23:09;18.40;99.90
20732;DHT22;10527;52.124;5.196;2023-05-07T15:25:36;18.50;99.90
20732;DHT22;10527;52.124;5.196;2023-05-07T15:28:03;18.40;99.90
20732;DHT22;10527;52.124;5.196;2023-05-07T15:30:30;18.10;99.90
20732;DHT22;10527;52.124;5.196;2023-05-07T15:32:57;17.60;99.90
20732;DHT22;10527;52.124;5.196;2023-05-07T15:35:24;17.50;99.90
20732;DHT22;10527;52.124;5.196;2023-05-07T15:37:52;17.20;99.90
20732;DHT22;10527;52.124;5.196;2023-05-07T15:40:19;17.20;99.90
20732;DHT22;10527;52.124;5.196;2023-05-07T15:42:46;17.00;99.90
20732;DHT22;10527;52.124;5.196;2023-05-07T15:45:13;17.00;99.90
20732;DHT22;10527;52.124;5.196;2023-05-07T15:47:40;17.00;99.90
20732;DHT22;10527;52.124;5.196;2023-05-07T15:50:07;17.10;99.90
20732;DHT22;10527;52.124;5.196;2023-05-07T15:52:34;17.10;99.90
20732;DHT22;10527;52.124;5.196;2023-05-07T15:55:01;17.10;99.90